CheckWX is a tool to help pilots better visualize weather data.  It is not intended as a substitute for an official pre-flight weather briefing.

04:12:37 UTC

EGLF METAR
Farnborough Airport
Farnborough, United Kingdom
Current

23 mins ago

EGLF 240350Z AUTO 13002KT 6000 NCD 10/07 Q0992
Observed
Apr-24 @ 03:50 UTC
Wind
  • 130° at 2 KTS
Visibility
6,003 meters
Flight Rules
MVFR
Cloud Levels
  • Clear skies
Temperature
10°C / 50°F
Dewpoint
C / 45°F
Humidity
82%
Altimeter
29.29" Hg
Pressure
991.92 hPa
Previous

53 mins ago

EGLF 240320Z AUTO VRB03KT 6000 NCD 10/07 Q0993
Observed
Apr-24 @ 03:20 UTC
Wind
  • Variable at 3 KTS
Visibility
6,003 meters
Flight Rules
MVFR
Cloud Levels
  • Clear skies
Temperature
10°C / 50°F
Dewpoint
C / 45°F
Humidity
82%
Altimeter
29.32" Hg
Pressure
992.92 hPa
Previous

1 hour ago

EGLF 240250Z AUTO 09002KT 6000 NCD 10/07 Q0993
Observed
Apr-24 @ 02:50 UTC
Wind
  • 090° at 2 KTS
Visibility
6,003 meters
Flight Rules
MVFR
Cloud Levels
  • Clear skies
Temperature
10°C / 50°F
Dewpoint
C / 45°F
Humidity
82%
Altimeter
29.32" Hg
Pressure
992.92 hPa